createdAt,value
2024-04-13T00:00:48.903Z,8.00
2024-04-13T00:03:16.547Z,8.00
2024-04-13T00:05:44.185Z,8.05
2024-04-13T00:08:11.691Z,7.40
2024-04-13T00:10:39.253Z,8.02
2024-04-13T00:13:06.345Z,8.20
2024-04-13T00:15:33.438Z,10.20
2024-04-13T00:18:03.018Z,8.70
2024-04-13T00:20:30.502Z,8.07
2024-04-13T00:22:58.030Z,8.30
2024-04-13T00:25:25.255Z,8.32
2024-04-13T00:27:52.889Z,8.00
2024-04-13T00:30:20.480Z,7.70
2024-04-13T00:32:49.880Z,7.80
2024-04-13T00:35:17.421Z,7.63
2024-04-13T00:37:45.105Z,8.20
2024-04-13T00:40:13.432Z,7.70
2024-04-13T00:42:41.976Z,8.05
2024-04-13T00:45:10.050Z,8.18
2024-04-13T00:47:41.016Z,7.90
2024-04-13T00:50:13.586Z,8.20
2024-04-13T00:52:44.633Z,8.23
2024-04-13T00:55:13.086Z,8.35
2024-04-13T00:57:41.281Z,8.32
2024-04-13T01:00:14.392Z,7.88
2024-04-13T01:02:45.070Z,8.33
2024-04-13T01:05:16.341Z,8.18
2024-04-13T01:07:47.634Z,7.80
2024-04-13T01:10:18.590Z,20.95
2024-04-13T01:12:46.118Z,8.40
2024-04-13T01:15:17.131Z,8.13
2024-04-13T01:17:45.338Z,7.93
2024-04-13T01:20:14.120Z,8.10
2024-04-13T01:22:47.483Z,8.23
2024-04-13T01:25:16.856Z,8.18
2024-04-13T01:27:45.167Z,13.55
2024-04-13T01:30:15.811Z,9.35
2024-04-13T01:32:43.458Z,8.30
2024-04-13T01:35:15.003Z,7.32
2024-04-13T01:37:43.506Z,8.43
2024-04-13T01:40:11.720Z,8.07
2024-04-13T01:42:42.559Z,7.05
2024-04-13T01:45:13.005Z,7.68
2024-04-13T01:47:42.208Z,8.27
2024-04-13T01:50:09.579Z,16.95
2024-04-13T01:52:37.056Z,8.77
2024-04-13T01:55:05.948Z,8.18
2024-04-13T01:57:34.122Z,8.32
2024-04-13T02:00:04.781Z,7.80
2024-04-13T02:02:32.434Z,7.85
2024-04-13T02:04:59.716Z,7.35
2024-04-13T02:07:30.935Z,7.70
2024-04-13T02:10:01.724Z,7.10
2024-04-13T02:12:29.508Z,7.50
2024-04-13T02:14:56.662Z,7.95
2024-04-13T02:17:23.832Z,7.28
2024-04-13T02:19:51.977Z,7.60
2024-04-13T02:22:20.206Z,7.13
2024-04-13T02:24:52.329Z,7.43
2024-04-13T02:27:22.543Z,7.68
2024-04-13T02:29:51.345Z,7.10
2024-04-13T02:32:20.747Z,7.22
2024-04-13T02:34:49.057Z,6.97
2024-04-13T02:37:16.553Z,7.13
2024-04-13T02:39:44.177Z,6.95
2024-04-13T02:42:13.695Z,7.10
2024-04-13T02:44:43.310Z,7.03
2024-04-13T02:47:10.518Z,7.22
2024-04-13T02:49:37.961Z,6.93
2024-04-13T02:52:07.252Z,6.60
2024-04-13T02:54:35.955Z,7.28
2024-04-13T02:57:03.697Z,7.82
2024-04-13T02:59:30.914Z,7.10
2024-04-13T03:01:58.386Z,7.18
2024-04-13T03:04:27.819Z,6.95
2024-04-13T03:07:00.828Z,6.82
2024-04-13T03:09:29.074Z,6.63
2024-04-13T03:11:57.593Z,6.35
2024-04-13T03:14:25.043Z,6.65
2024-04-13T03:16:52.541Z,6.70
2024-04-13T03:19:20.325Z,6.35
2024-04-13T03:21:48.383Z,6.40
2024-04-13T03:24:15.771Z,6.88
2024-04-13T03:26:43.374Z,6.18
2024-04-13T03:29:10.482Z,6.72
2024-04-13T03:31:37.805Z,7.68
2024-04-13T03:34:06.242Z,8.43
2024-04-13T03:36:33.459Z,7.00
2024-04-13T03:39:01.012Z,6.75
2024-04-13T03:41:29.503Z,6.55
2024-04-13T03:43:57.353Z,6.43
2024-04-13T03:46:28.083Z,5.93
2024-04-13T03:48:55.781Z,6.05
2024-04-13T03:51:24.184Z,6.38
2024-04-13T03:53:51.180Z,6.55
2024-04-13T03:56:20.622Z,6.30
2024-04-13T03:58:48.661Z,6.45
2024-04-13T04:01:16.005Z,7.18
2024-04-13T04:03:46.272Z,8.35
2024-04-13T04:06:13.914Z,9.85
2024-04-13T04:08:45.140Z,12.18
2024-04-13T04:11:12.366Z,7.13
2024-04-13T04:13:41.935Z,6.40
2024-04-13T04:16:10.261Z,5.80
2024-04-13T04:18:37.479Z,5.40
2024-04-13T04:21:05.992Z,5.93
2024-04-13T04:23:33.297Z,5.68
2024-04-13T04:26:01.190Z,5.82
2024-04-13T04:28:30.623Z,5.60
2024-04-13T04:31:11.527Z,5.63
2024-04-13T04:33:40.734Z,5.70
2024-04-13T04:36:13.278Z,5.88
2024-04-13T04:38:44.967Z,5.68
2024-04-13T04:41:13.146Z,5.43
2024-04-13T04:43:40.617Z,5.53
2024-04-13T04:46:10.946Z,5.38
2024-04-13T04:48:38.670Z,5.13
2024-04-13T04:51:09.024Z,5.40
2024-04-13T04:53:36.506Z,5.22
2024-04-13T04:56:04.187Z,5.53
2024-04-13T04:58:34.000Z,5.35
2024-04-13T05:01:03.093Z,5.32
2024-04-13T05:03:31.610Z,5.25
2024-04-13T05:05:58.999Z,5.40
2024-04-13T05:08:29.096Z,5.90
2024-04-13T05:10:59.384Z,5.22
2024-04-13T05:13:27.177Z,5.70
2024-04-13T05:15:55.599Z,5.43
2024-04-13T05:18:25.323Z,5.47
2024-04-13T05:20:52.364Z,6.40
2024-04-13T05:23:19.562Z,6.53
2024-04-13T05:25:47.901Z,5.93
2024-04-13T05:28:15.295Z,5.80
2024-04-13T05:30:56.939Z,5.65
2024-04-13T05:33:25.203Z,6.45
2024-04-13T05:36:03.261Z,6.53
2024-04-13T05:38:32.998Z,5.95
2024-04-13T05:41:00.800Z,6.32
2024-04-13T05:43:29.597Z,5.90
2024-04-13T05:45:57.215Z,6.10
2024-04-13T05:48:24.905Z,5.93
2024-04-13T05:51:01.557Z,6.13
2024-04-13T05:53:29.037Z,6.47
2024-04-13T05:55:57.244Z,6.22
2024-04-13T05:58:24.831Z,6.22
2024-04-13T06:00:56.397Z,6.10
2024-04-13T06:03:25.148Z,7.13
2024-04-13T06:05:52.654Z,6.70
2024-04-13T06:08:20.201Z,5.82
2024-04-13T06:10:54.788Z,5.87
2024-04-13T06:13:21.836Z,5.85
2024-04-13T06:15:50.393Z,5.75
2024-04-13T06:18:18.887Z,5.30
2024-04-13T06:20:47.782Z,4.75
2024-04-13T06:23:16.747Z,5.50
2024-04-13T06:25:47.012Z,5.32
2024-04-13T06:28:16.438Z,5.38
2024-04-13T06:30:47.293Z,5.65
2024-04-13T06:33:18.088Z,4.78
2024-04-13T06:35:49.514Z,5.25
2024-04-13T06:38:22.234Z,4.97
2024-04-13T06:40:52.402Z,4.22
2024-04-13T06:43:20.371Z,5.10
2024-04-13T06:45:48.764Z,4.30
2024-04-13T06:48:17.075Z,3.67
2024-04-13T06:50:47.154Z,3.92
2024-04-13T06:53:14.597Z,3.70
2024-04-13T06:55:42.031Z,3.80
2024-04-13T06:58:11.843Z,3.83
2024-04-13T07:00:38.955Z,4.30
2024-04-13T07:03:08.591Z,3.90
2024-04-13T07:05:35.908Z,3.50
2024-04-13T07:08:03.499Z,3.50
2024-04-13T07:10:31.459Z,3.63
2024-04-13T07:12:58.476Z,4.07
2024-04-13T07:15:26.768Z,4.43
2024-04-13T07:17:54.294Z,4.82
2024-04-13T07:20:23.832Z,4.45
2024-04-13T07:22:55.319Z,4.35
2024-04-13T07:25:22.705Z,4.50
2024-04-13T07:27:50.438Z,4.63
2024-04-13T07:30:19.728Z,5.43
2024-04-13T07:32:48.159Z,5.35
2024-04-13T07:35:17.691Z,4.90
2024-04-13T07:37:46.415Z,5.30
2024-04-13T07:40:23.511Z,5.18
2024-04-13T07:42:52.933Z,5.38
2024-04-13T07:45:20.361Z,5.50
2024-04-13T07:47:47.937Z,6.93
2024-04-13T07:50:16.277Z,5.50
2024-04-13T07:52:43.669Z,6.40
2024-04-13T07:55:11.151Z,5.53
2024-04-13T07:57:38.764Z,6.13
2024-04-13T08:00:09.944Z,6.03
2024-04-13T08:02:37.847Z,7.10
2024-04-13T08:05:05.402Z,8.00
2024-04-13T08:07:33.613Z,8.52
2024-04-13T08:10:05.171Z,7.93
2024-04-13T08:12:34.884Z,7.55
2024-04-13T08:15:04.799Z,6.95
2024-04-13T08:17:34.206Z,8.55
2024-04-13T08:20:10.751Z,8.18
2024-04-13T08:22:38.427Z,8.27
2024-04-13T08:25:06.969Z,8.43
2024-04-13T08:27:35.211Z,9.20
2024-04-13T08:30:03.535Z,9.55
2024-04-13T08:32:32.855Z,8.73
2024-04-13T08:35:03.158Z,8.70
2024-04-13T08:37:31.777Z,8.60
2024-04-13T08:39:59.069Z,9.15
2024-04-13T08:42:35.875Z,8.25
2024-04-13T08:45:05.984Z,8.20
2024-04-13T08:47:34.574Z,8.23
2024-04-13T08:50:03.861Z,7.57
2024-04-13T08:52:35.296Z,6.82
2024-04-13T08:55:06.616Z,6.88
2024-04-13T08:57:37.566Z,6.78
2024-04-13T09:00:09.998Z,6.35
2024-04-13T09:02:40.476Z,6.70
2024-04-13T09:07:38.511Z,5.32
2024-04-13T09:10:12.647Z,4.90
2024-04-13T09:12:40.098Z,4.10
2024-04-13T09:15:08.846Z,4.57
2024-04-13T09:17:37.094Z,4.38
2024-04-13T09:20:13.743Z,4.13
2024-04-13T09:22:42.169Z,3.63
2024-04-13T09:25:20.169Z,3.78
2024-04-13T09:28:04.697Z,3.67
2024-04-13T09:30:33.184Z,3.97
2024-04-13T09:33:11.906Z,3.10
2024-04-13T09:35:39.093Z,3.40
2024-04-13T09:38:07.571Z,3.60
2024-04-13T09:40:36.426Z,3.55
2024-04-13T09:43:07.999Z,2.88
2024-04-13T09:45:39.857Z,3.10
2024-04-13T09:48:07.854Z,3.55
2024-04-13T09:50:35.223Z,2.63
2024-04-13T09:53:02.888Z,2.70
2024-04-13T09:55:36.762Z,2.65
2024-04-13T09:58:06.109Z,2.90
2024-04-13T10:00:39.001Z,3.08
2024-04-13T10:03:10.454Z,3.28
2024-04-13T10:05:39.487Z,2.80
2024-04-13T10:08:08.675Z,3.15
2024-04-13T10:10:38.857Z,3.33
2024-04-13T10:13:07.904Z,2.97
2024-04-13T10:15:36.146Z,3.22
2024-04-13T10:18:06.708Z,2.70
2024-04-13T10:20:37.850Z,3.42
2024-04-13T10:23:11.667Z,2.50
2024-04-13T10:25:39.019Z,2.83
2024-04-13T10:28:11.507Z,2.85
2024-04-13T10:30:55.684Z,3.05
2024-04-13T10:33:27.212Z,2.60
2024-04-13T10:36:06.213Z,3.05
2024-04-13T10:38:35.134Z,2.75
2024-04-13T10:41:04.264Z,2.92
2024-04-13T10:43:33.194Z,2.90
2024-04-13T10:46:03.280Z,2.53
2024-04-13T10:48:34.060Z,2.90
2024-04-13T10:51:06.241Z,3.40
2024-04-13T10:53:33.324Z,3.28
2024-04-13T10:56:00.754Z,3.42
2024-04-13T10:58:30.685Z,2.90
2024-04-13T11:01:02.470Z,2.20
2024-04-13T11:03:31.350Z,2.75
2024-04-13T11:05:59.819Z,2.30
2024-04-13T11:08:28.791Z,2.58
2024-04-13T11:10:58.176Z,3.20
2024-04-13T11:13:25.933Z,2.85
2024-04-13T11:15:53.727Z,2.55
2024-04-13T11:18:23.389Z,2.65
2024-04-13T11:21:06.728Z,2.90
2024-04-13T11:23:37.063Z,3.00
2024-04-13T11:26:05.091Z,2.80
2024-04-13T11:28:35.650Z,2.72
2024-04-13T11:31:03.118Z,2.83
2024-04-13T11:33:33.782Z,2.70
2024-04-13T11:36:02.405Z,2.80
2024-04-13T11:38:36.600Z,2.60
2024-04-13T11:41:05.467Z,3.03
2024-04-13T11:43:32.617Z,2.63
2024-04-13T11:46:00.260Z,2.30
2024-04-13T11:48:31.834Z,2.80
2024-04-13T11:50:59.433Z,2.55
2024-04-13T11:53:28.172Z,3.35
2024-04-13T11:55:55.549Z,2.67
2024-04-13T11:58:25.563Z,2.90
2024-04-13T12:00:54.093Z,2.67
2024-04-13T12:03:24.437Z,2.92
2024-04-13T12:05:53.030Z,2.97
2024-04-13T12:08:21.635Z,2.33
2024-04-13T12:10:49.276Z,2.60
2024-04-13T12:13:16.337Z,2.53
2024-04-13T12:15:44.662Z,2.65
2024-04-13T12:18:13.273Z,2.70
2024-04-13T12:20:40.762Z,2.97
2024-04-13T12:23:10.320Z,2.45
2024-04-13T12:25:41.804Z,3.08
2024-04-13T12:28:09.238Z,3.00
2024-04-13T12:30:36.937Z,2.90
2024-04-13T12:33:04.350Z,3.20
2024-04-13T12:35:31.999Z,3.30
2024-04-13T12:38:01.767Z,3.50
2024-04-13T12:40:31.003Z,3.00
2024-04-13T12:42:58.622Z,3.50
2024-04-13T12:45:27.096Z,3.05
2024-04-13T12:47:57.569Z,3.55
2024-04-13T12:50:25.036Z,3.45
2024-04-13T12:52:52.716Z,3.03
2024-04-13T12:55:21.004Z,3.40
2024-04-13T12:57:50.726Z,3.13
2024-04-13T13:00:18.137Z,3.08
2024-04-13T13:02:46.464Z,3.40
2024-04-13T13:05:14.099Z,2.85
2024-04-13T13:07:41.271Z,2.95
2024-04-13T13:10:08.946Z,3.00
2024-04-13T13:12:36.049Z,3.28
2024-04-13T13:15:04.572Z,2.90
2024-04-13T13:17:36.342Z,3.40
2024-04-13T13:20:04.752Z,2.90
2024-04-13T13:22:32.253Z,2.83
2024-04-13T13:25:38.794Z,3.10
2024-04-13T13:28:08.002Z,2.67
2024-04-13T13:30:41.854Z,2.90
2024-04-13T13:33:13.805Z,3.03
2024-04-13T13:35:43.186Z,2.97
2024-04-13T13:38:11.543Z,3.15
2024-04-13T13:40:38.739Z,3.10
2024-04-13T13:43:12.705Z,3.05
2024-04-13T13:45:41.843Z,3.45
2024-04-13T13:48:09.548Z,3.00
2024-04-13T13:50:37.347Z,3.22
2024-04-13T13:53:05.750Z,3.42
2024-04-13T13:55:33.420Z,3.00
2024-04-13T13:58:02.274Z,3.08
2024-04-13T14:00:31.634Z,3.30
2024-04-13T14:03:00.242Z,3.20
2024-04-13T14:05:28.954Z,3.70
2024-04-13T14:07:56.085Z,3.90
2024-04-13T14:10:27.373Z,3.60
2024-04-13T14:12:57.726Z,3.30
2024-04-13T14:15:25.099Z,3.38
2024-04-13T14:17:53.333Z,2.80
2024-04-13T14:22:48.951Z,3.42
2024-04-13T14:25:16.669Z,3.58
2024-04-13T14:27:43.904Z,3.58
2024-04-13T14:30:11.674Z,3.63
2024-04-13T14:32:39.932Z,3.47
2024-04-13T14:35:08.569Z,3.55
2024-04-13T14:37:36.850Z,3.25
2024-04-13T14:40:05.753Z,3.40
2024-04-13T14:42:34.319Z,3.00
2024-04-13T14:45:01.757Z,3.65
2024-04-13T14:47:29.259Z,3.65
2024-04-13T14:49:57.691Z,3.95
2024-04-13T14:52:26.170Z,3.58
2024-04-13T14:54:53.607Z,3.65
2024-04-13T14:57:21.396Z,3.72
2024-04-13T14:59:48.641Z,3.50
2024-04-13T15:02:16.412Z,3.88
2024-04-13T15:04:43.532Z,4.22
2024-04-13T15:07:12.055Z,4.00
2024-04-13T15:09:40.689Z,4.38
2024-04-13T15:12:08.353Z,4.30
2024-04-13T15:14:38.310Z,3.72
2024-04-13T15:17:06.707Z,7.93
2024-04-13T15:19:34.219Z,5.18
2024-04-13T15:22:03.366Z,4.65
2024-04-13T15:24:30.546Z,8.98
2024-04-13T15:27:00.054Z,4.28
2024-04-13T15:29:27.606Z,4.88
2024-04-13T15:31:55.953Z,4.35
2024-04-13T15:34:24.455Z,4.50
2024-04-13T15:36:52.058Z,4.80
2024-04-13T15:39:21.558Z,4.60
2024-04-13T15:41:49.873Z,4.13
2024-04-13T15:44:18.855Z,4.47
2024-04-13T15:46:45.794Z,4.13
2024-04-13T15:49:13.458Z,5.00
2024-04-13T15:51:41.678Z,4.47
2024-04-13T15:54:13.072Z,4.60
2024-04-13T15:56:43.416Z,5.00
2024-04-13T15:59:12.933Z,4.85
2024-04-13T16:01:44.400Z,4.30
2024-04-13T16:04:11.599Z,5.32
2024-04-13T16:06:38.872Z,6.10
2024-04-13T16:09:05.987Z,5.35
2024-04-13T16:11:34.444Z,5.07
2024-04-13T16:14:04.804Z,5.13
2024-04-13T16:16:31.830Z,6.15
2024-04-13T16:19:01.538Z,6.30
2024-04-13T16:21:28.739Z,5.25
2024-04-13T16:23:56.029Z,5.75
2024-04-13T16:26:23.147Z,5.93
2024-04-13T16:28:51.766Z,5.80
2024-04-13T16:31:20.040Z,5.50
2024-04-13T16:33:47.165Z,6.28
2024-04-13T16:36:15.976Z,6.32
2024-04-13T16:38:43.049Z,9.45
2024-04-13T16:41:11.578Z,8.10
2024-04-13T16:43:38.869Z,7.07
2024-04-13T16:46:05.839Z,7.60
2024-04-13T16:48:32.914Z,5.88
2024-04-13T16:51:02.564Z,6.00
2024-04-13T16:53:35.862Z,5.80
2024-04-13T16:56:04.597Z,7.03
2024-04-13T16:58:33.880Z,5.30
2024-04-13T17:01:02.776Z,6.28
2024-04-13T17:03:31.558Z,5.82
2024-04-13T17:05:58.794Z,5.15
2024-04-13T17:08:29.107Z,5.50
2024-04-13T17:10:58.472Z,6.38
2024-04-13T17:13:25.713Z,5.10
2024-04-13T17:15:53.322Z,5.50
2024-04-13T17:18:20.846Z,5.80
2024-04-13T17:20:54.539Z,6.78
2024-04-13T17:23:21.930Z,5.15
2024-04-13T17:25:49.256Z,5.35
2024-04-13T17:28:16.724Z,6.03
2024-04-13T17:30:47.667Z,5.95
2024-04-13T17:33:15.459Z,10.80
2024-04-13T17:35:47.341Z,27.63
2024-04-13T17:38:14.611Z,9.10
2024-04-13T17:40:41.585Z,7.75
2024-04-13T17:43:11.143Z,6.63
2024-04-13T17:45:38.710Z,7.07
2024-04-13T17:48:05.992Z,6.60
2024-04-13T17:53:05.957Z,7.97
2024-04-13T17:55:33.062Z,8.00
2024-04-13T17:58:01.544Z,10.83
2024-04-13T18:00:29.149Z,8.43
2024-04-13T18:02:59.707Z,44.33
2024-04-13T18:05:28.163Z,31.98
2024-04-13T18:07:56.165Z,7.80
2024-04-13T18:10:23.420Z,6.78
2024-04-13T18:12:51.111Z,6.05
2024-04-13T18:15:18.301Z,6.20
2024-04-13T18:17:47.539Z,6.93
2024-04-13T18:20:15.864Z,13.35
2024-04-13T18:22:43.275Z,17.25
2024-04-13T18:25:10.634Z,7.18
2024-04-13T18:27:37.936Z,6.40
2024-04-13T18:30:07.346Z,7.97
2024-04-13T18:32:36.866Z,7.00
2024-04-13T18:35:06.715Z,8.20
2024-04-13T18:37:35.166Z,9.70
2024-04-13T18:40:02.800Z,11.07
2024-04-13T18:42:31.129Z,10.35
2024-04-13T18:44:59.554Z,10.25
2024-04-13T18:47:27.123Z,11.52
2024-04-13T18:49:56.071Z,11.07
2024-04-13T18:52:23.948Z,10.35
2024-04-13T18:54:52.393Z,8.60
2024-04-13T18:57:19.599Z,8.10
2024-04-13T18:59:47.885Z,8.02
2024-04-13T19:02:15.307Z,7.45
2024-04-13T19:04:45.298Z,6.82
2024-04-13T19:07:12.759Z,7.13
2024-04-13T19:09:42.201Z,7.18
2024-04-13T19:12:09.665Z,6.93
2024-04-13T19:14:41.150Z,7.13
2024-04-13T19:17:08.200Z,7.03
2024-04-13T19:19:37.043Z,7.03
2024-04-13T19:22:04.690Z,7.05
2024-04-13T19:24:31.722Z,7.35
2024-04-13T19:27:01.902Z,7.35
2024-04-13T19:29:29.566Z,8.15
2024-04-13T19:31:57.237Z,8.02
2024-04-13T19:34:24.447Z,8.23
2024-04-13T19:36:51.508Z,8.30
2024-04-13T19:39:19.197Z,7.25
2024-04-13T19:41:46.494Z,7.50
2024-04-13T19:44:17.970Z,8.25
2024-04-13T19:49:14.627Z,8.18
2024-04-13T19:51:43.065Z,8.10
2024-04-13T19:54:11.426Z,8.38
2024-04-13T19:56:38.832Z,8.30
2024-04-13T19:59:05.937Z,8.30
2024-04-13T20:01:33.270Z,8.63
2024-04-13T20:04:05.658Z,9.57
2024-04-13T20:06:36.323Z,8.45
2024-04-13T20:09:05.097Z,9.30
2024-04-13T20:11:34.391Z,8.32
2024-04-13T20:14:01.811Z,8.55
2024-04-13T20:19:11.631Z,8.55
2024-04-13T20:21:38.839Z,8.88
2024-04-13T20:24:06.156Z,8.40
2024-04-13T20:26:33.331Z,9.00
2024-04-13T20:29:00.829Z,8.88
2024-04-13T20:31:28.272Z,9.30
2024-04-13T20:33:55.832Z,9.98
2024-04-13T20:36:23.427Z,11.63
2024-04-13T20:38:50.823Z,8.80
2024-04-13T20:41:18.289Z,9.60
2024-04-13T20:43:45.759Z,8.60
2024-04-13T20:46:14.143Z,16.65
2024-04-13T20:48:42.821Z,30.30
2024-04-13T20:51:10.090Z,24.60
2024-04-13T20:53:37.670Z,8.65
2024-04-13T20:56:05.422Z,8.93
2024-04-13T20:58:32.661Z,8.85
2024-04-13T21:01:00.288Z,8.88
2024-04-13T21:03:27.656Z,10.10
2024-04-13T21:05:55.946Z,9.32
2024-04-13T21:08:23.463Z,8.73
2024-04-13T21:10:50.849Z,8.93
2024-04-13T21:13:18.321Z,8.40
2024-04-13T21:15:46.121Z,8.90
2024-04-13T21:18:13.311Z,8.52
2024-04-13T21:20:40.782Z,9.23
2024-04-13T21:23:08.271Z,8.60
2024-04-13T21:25:39.929Z,10.48
2024-04-13T21:28:09.320Z,8.43
2024-04-13T21:30:39.277Z,8.77
2024-04-13T21:33:06.931Z,9.20
2024-04-13T21:35:39.153Z,9.38
2024-04-13T21:38:06.244Z,9.73
2024-04-13T21:40:33.709Z,9.13
2024-04-13T21:43:01.107Z,9.27
2024-04-13T21:45:28.309Z,9.63
2024-04-13T21:47:57.727Z,9.50
2024-04-13T21:50:25.318Z,9.65
2024-04-13T21:52:53.635Z,9.55
2024-04-13T21:55:21.226Z,9.68
2024-04-13T21:57:48.585Z,9.10
2024-04-13T22:00:17.560Z,9.68
2024-04-13T22:02:45.400Z,9.00
2024-04-13T22:05:13.233Z,8.88
2024-04-13T22:07:41.662Z,8.63
2024-04-13T22:10:09.235Z,9.10
2024-04-13T22:12:36.505Z,8.70
2024-04-13T22:15:04.658Z,9.05
2024-04-13T22:17:31.921Z,9.32
2024-04-13T22:19:59.336Z,10.13
2024-04-13T22:22:26.850Z,9.10
2024-04-13T22:24:53.890Z,9.27
2024-04-13T22:27:23.335Z,10.18
2024-04-13T22:29:55.385Z,9.45
2024-04-13T22:32:22.845Z,9.50
2024-04-13T22:34:50.271Z,9.65
2024-04-13T22:37:20.138Z,10.30
2024-04-13T22:39:47.796Z,9.75
2024-04-13T22:42:15.419Z,9.63
2024-04-13T22:44:42.722Z,8.88
2024-04-13T22:47:10.256Z,9.48
2024-04-13T22:49:37.669Z,9.70
2024-04-13T22:52:05.339Z,9.27
2024-04-13T22:54:34.996Z,9.80
2024-04-13T22:57:03.661Z,9.48
2024-04-13T22:59:30.885Z,9.05
2024-04-13T23:01:58.690Z,10.00
2024-04-13T23:04:26.259Z,9.73
2024-04-13T23:06:55.814Z,9.32
2024-04-13T23:09:24.140Z,8.77
2024-04-13T23:11:55.671Z,9.32
2024-04-13T23:14:23.321Z,9.15
2024-04-13T23:16:54.819Z,8.70
2024-04-13T23:19:22.224Z,8.88
2024-04-13T23:21:50.717Z,9.18
2024-04-13T23:24:17.705Z,8.48
2024-04-13T23:26:45.604Z,11.65
2024-04-13T23:29:15.357Z,10.68
2024-04-13T23:31:45.632Z,8.95
2024-04-13T23:34:13.282Z,8.25
2024-04-13T23:36:42.015Z,8.38
2024-04-13T23:39:11.814Z,11.73
2024-04-13T23:41:41.239Z,10.63
2024-04-13T23:44:14.219Z,8.15
2024-04-13T23:46:42.949Z,13.30
2024-04-13T23:49:10.785Z,10.95
2024-04-13T23:51:39.325Z,10.13
2024-04-13T23:54:08.668Z,9.15
2024-04-13T23:56:39.009Z,9.38
2024-04-13T23:59:09.439Z,9.77
